createdAt,value
2022-08-26T00:02:01.485Z,101288.34
2022-08-26T00:04:29.156Z,101286.84
2022-08-26T00:06:57.115Z,101288.97
2022-08-26T00:09:25.988Z,101294.78
2022-08-26T00:11:54.746Z,101294.03
2022-08-26T00:14:29.951Z,101292.41
2022-08-26T00:16:58.903Z,101292.72
2022-08-26T00:19:26.854Z,101295.50
2022-08-26T00:21:54.215Z,101285.97
2022-08-26T00:24:23.443Z,101288.00
2022-08-26T00:26:51.564Z,101290.69
2022-08-26T00:29:21.279Z,101297.09
2022-08-26T00:31:49.295Z,101295.47
2022-08-26T00:34:16.823Z,101295.78
2022-08-26T00:36:47.904Z,101296.69
2022-08-26T00:39:20.097Z,101301.16
2022-08-26T00:41:50.043Z,101302.88
2022-08-26T00:44:18.214Z,101298.47
2022-08-26T00:46:55.375Z,101296.69
2022-08-26T00:49:40.396Z,101293.22
2022-08-26T00:52:15.364Z,101289.69
2022-08-26T00:55:01.072Z,101301.91
2022-08-26T00:57:32.917Z,101295.91
2022-08-26T01:00:06.708Z,101303.94
2022-08-26T01:02:34.077Z,101298.59
2022-08-26T01:05:06.676Z,101294.97
2022-08-26T01:07:35.559Z,101294.00
2022-08-26T01:10:10.292Z,101298.16
2022-08-26T01:12:45.432Z,101290.44
2022-08-26T01:15:22.749Z,101286.91
2022-08-26T01:17:50.518Z,101296.69
2022-08-26T01:20:58.804Z,101297.31
2022-08-26T01:23:38.226Z,101298.09
2022-08-26T01:26:19.433Z,101301.41
2022-08-26T01:28:51.967Z,101298.72
2022-08-26T01:31:25.290Z,101296.69
2022-08-26T01:34:11.020Z,101304.72
2022-08-26T01:36:40.073Z,101303.97
2022-08-26T01:39:08.701Z,101304.09
2022-08-26T01:41:37.212Z,101312.13
2022-08-26T01:44:09.802Z,101316.53
2022-08-26T01:46:37.345Z,101318.03
2022-08-26T01:49:08.508Z,101314.38
2022-08-26T01:51:38.685Z,101319.94
2022-08-26T01:54:11.920Z,101320.59
2022-08-26T01:56:41.746Z,101320.81
2022-08-26T01:59:14.805Z,101324.34
2022-08-26T02:01:42.975Z,101327.97
2022-08-26T02:04:27.275Z,101323.69
2022-08-26T02:06:57.879Z,101327.66
2022-08-26T02:09:26.498Z,101329.50
2022-08-26T02:11:55.582Z,101315.22
2022-08-26T02:14:43.719Z,101311.13
2022-08-26T02:17:12.291Z,101318.19
2022-08-26T02:19:45.164Z,101319.28
2022-08-26T02:22:19.442Z,101306.84
2022-08-26T02:24:57.313Z,101316.59
2022-08-26T02:27:32.492Z,101315.75
2022-08-26T02:30:29.087Z,101317.56
2022-08-26T02:33:00.015Z,101323.88
2022-08-26T02:35:27.057Z,101321.38
2022-08-26T02:37:54.552Z,101328.69
2022-08-26T02:40:30.362Z,101322.56
2022-08-26T02:42:57.951Z,101323.66
2022-08-26T02:45:28.009Z,101325.56
2022-08-26T02:47:58.509Z,101323.84
2022-08-26T02:50:27.483Z,101319.44
2022-08-26T02:52:55.747Z,101309.88
2022-08-26T02:55:24.720Z,101307.41
2022-08-26T02:57:52.402Z,101299.69
2022-08-26T03:00:19.742Z,101307.72
2022-08-26T03:02:46.722Z,101304.28
2022-08-26T03:05:13.876Z,101311.38
2022-08-26T03:07:43.463Z,101314.88
2022-08-26T03:10:13.173Z,101315.13
2022-08-26T03:12:47.526Z,101313.28
2022-08-26T03:15:18.408Z,101321.44
2022-08-26T03:17:50.343Z,101324.16
2022-08-26T03:20:18.641Z,101327.78
2022-08-26T03:22:46.171Z,101331.34
2022-08-26T03:25:16.084Z,101335.75
2022-08-26T03:27:43.789Z,101333.88
2022-08-26T03:30:31.838Z,101339.88
2022-08-26T03:33:00.919Z,101338.03
2022-08-26T03:35:28.343Z,101342.44
2022-08-26T03:37:55.464Z,101338.81
2022-08-26T03:40:23.293Z,101329.94
2022-08-26T03:42:53.166Z,101327.13
2022-08-26T03:45:21.805Z,101325.28
2022-08-26T03:47:49.525Z,101328.94
2022-08-26T03:50:22.977Z,101321.13
2022-08-26T03:52:55.969Z,101327.44
2022-08-26T03:55:31.937Z,101327.53
2022-08-26T03:58:00.686Z,101331.06
2022-08-26T04:00:28.848Z,101336.44
2022-08-26T04:02:56.229Z,101331.84
2022-08-26T04:05:29.305Z,101338.03
2022-08-26T04:07:56.518Z,101331.72
2022-08-26T04:10:26.425Z,101329.81
2022-08-26T04:13:00.562Z,101335.94
2022-08-26T04:15:28.350Z,101340.41
2022-08-26T04:17:57.371Z,101336.59
2022-08-26T04:20:26.151Z,101343.88
2022-08-26T04:22:53.790Z,101340.34
2022-08-26T04:25:21.259Z,101341.19
2022-08-26T04:27:48.539Z,101329.63
2022-08-26T04:30:16.728Z,101334.75
2022-08-26T04:32:45.887Z,101340.13
2022-08-26T04:35:13.002Z,101341.72
2022-08-26T04:37:43.102Z,101343.38
2022-08-26T04:40:10.904Z,101343.38
2022-08-26T04:42:38.251Z,101343.25
2022-08-26T04:45:09.962Z,101336.94
2022-08-26T04:47:37.261Z,101336.94
2022-08-26T04:50:06.954Z,101347.66
2022-08-26T04:52:36.566Z,101344.97
2022-08-26T04:55:06.595Z,101355.56
2022-08-26T04:57:36.311Z,101351.84
2022-08-26T05:00:07.914Z,101363.41
2022-08-26T05:02:36.163Z,101361.50
2022-08-26T05:05:07.120Z,101359.59
2022-08-26T05:07:35.332Z,101367.41
2022-08-26T05:10:04.149Z,101360.25
2022-08-26T05:12:35.757Z,101363.75
2022-08-26T05:15:06.301Z,101366.38
2022-08-26T05:17:34.412Z,101365.38
2022-08-26T05:20:01.614Z,101368.06
2022-08-26T05:22:28.737Z,101365.09
2022-08-26T05:24:55.780Z,101364.88
2022-08-26T05:27:23.353Z,101381.06
2022-08-26T05:29:54.515Z,101364.09
2022-08-26T05:32:21.712Z,101374.09
2022-08-26T05:34:55.350Z,101376.56
2022-08-26T05:37:23.080Z,101364.97
2022-08-26T05:39:51.177Z,101378.38
2022-08-26T05:42:20.019Z,101377.50
2022-08-26T05:44:55.504Z,101383.63
2022-08-26T05:47:24.625Z,101378.19
2022-08-26T05:49:52.424Z,101381.59
2022-08-26T05:52:20.206Z,101389.75
2022-08-26T05:54:47.702Z,101386.00
2022-08-26T05:57:16.165Z,101393.84
2022-08-26T05:59:45.649Z,101391.06
2022-08-26T06:02:13.125Z,101390.03
2022-08-26T06:04:40.728Z,101395.38
2022-08-26T06:07:09.950Z,101387.97
2022-08-26T06:09:39.212Z,101396.69
2022-08-26T06:12:13.068Z,101397.44
2022-08-26T06:14:43.230Z,101398.28
2022-08-26T06:17:11.532Z,101397.00
2022-08-26T06:19:41.350Z,101394.97
2022-08-26T06:22:28.401Z,101395.75
2022-08-26T06:25:14.032Z,101400.78
2022-08-26T06:27:41.056Z,101398.47
2022-08-26T06:30:09.895Z,101395.69
2022-08-26T06:32:36.917Z,101400.00
2022-08-26T06:35:06.238Z,101406.75
2022-08-26T06:37:39.537Z,101411.88
2022-08-26T06:40:09.407Z,101411.69
2022-08-26T06:42:39.101Z,101414.38
2022-08-26T06:45:08.073Z,101411.38
2022-08-26T06:47:36.296Z,101419.22
2022-08-26T06:50:03.993Z,101418.34
2022-08-26T06:52:31.004Z,101423.94
2022-08-26T06:54:58.231Z,101425.97
2022-08-26T06:57:25.428Z,101424.34
2022-08-26T06:59:52.605Z,101428.53
2022-08-26T07:02:20.827Z,101430.16
2022-08-26T07:04:48.109Z,101431.03
2022-08-26T07:07:18.176Z,101425.53
2022-08-26T07:09:49.114Z,101433.91
2022-08-26T07:12:19.924Z,101423.31
2022-08-26T07:14:48.167Z,101430.38
2022-08-26T07:17:16.353Z,101424.13
2022-08-26T07:19:43.510Z,101433.19
2022-08-26T07:22:10.909Z,101425.75
2022-08-26T07:24:43.416Z,101435.34
2022-08-26T07:27:15.538Z,101432.41
2022-08-26T07:29:43.632Z,101438.97
2022-08-26T07:32:14.206Z,101442.53
2022-08-26T07:34:42.243Z,101447.34
2022-08-26T07:37:10.472Z,101439.19
2022-08-26T07:39:40.432Z,101443.13
2022-08-26T07:42:09.533Z,101447.63
2022-08-26T07:44:40.489Z,101453.88
2022-08-26T07:47:10.088Z,101455.16
2022-08-26T07:49:38.425Z,101458.66
2022-08-26T07:52:06.454Z,101459.00
2022-08-26T07:54:33.535Z,101458.03
2022-08-26T07:57:01.549Z,101457.47
2022-08-26T07:59:35.473Z,101459.38
2022-08-26T08:02:02.509Z,101461.59
2022-08-26T08:04:30.429Z,101466.63
2022-08-26T08:06:58.158Z,101467.28
2022-08-26T08:09:26.081Z,101466.22
2022-08-26T08:11:54.669Z,101471.13
2022-08-26T08:14:22.353Z,101464.56
2022-08-26T08:16:51.245Z,101468.00
2022-08-26T08:19:22.496Z,101468.78
2022-08-26T08:21:51.033Z,101460.63
2022-08-26T08:24:18.591Z,101460.06
2022-08-26T08:26:46.040Z,101460.22
2022-08-26T08:29:13.434Z,101455.19
2022-08-26T08:31:57.976Z,101461.28
2022-08-26T08:34:28.874Z,101469.13
2022-08-26T08:36:57.158Z,101465.53
2022-08-26T08:39:26.303Z,101472.59
2022-08-26T08:42:10.843Z,101471.91
2022-08-26T08:44:43.655Z,101473.66
2022-08-26T08:47:33.835Z,101473.16
2022-08-26T08:50:24.021Z,101477.03
2022-08-26T08:53:16.487Z,101477.50
2022-08-26T08:55:49.615Z,101470.59
2022-08-26T08:58:25.041Z,101477.91
2022-08-26T09:01:04.890Z,101479.53
2022-08-26T09:04:17.966Z,101482.88
2022-08-26T09:06:54.880Z,101485.69
2022-08-26T09:09:45.437Z,101485.00
2022-08-26T09:12:29.832Z,101480.50
2022-08-26T09:15:07.527Z,101482.41
2022-08-26T09:18:05.606Z,101480.75
2022-08-26T09:20:57.383Z,101478.78
2022-08-26T09:23:26.988Z,101477.25
2022-08-26T09:26:03.764Z,101491.25
2022-08-26T09:28:32.953Z,101488.72
2022-08-26T09:31:19.153Z,101487.19
2022-08-26T09:33:47.477Z,101485.00
2022-08-26T09:36:39.350Z,101484.81
2022-08-26T09:39:27.418Z,101488.59
2022-08-26T09:42:08.077Z,101475.75
2022-08-26T09:44:57.262Z,101485.53
2022-08-26T09:47:53.212Z,101480.28
2022-08-26T09:50:29.148Z,101483.97
2022-08-26T09:53:12.967Z,101480.06
2022-08-26T09:55:45.068Z,101479.44
2022-08-26T09:58:16.864Z,101486.91
2022-08-26T10:00:58.761Z,101478.06
2022-08-26T10:03:33.063Z,101481.75
2022-08-26T10:06:21.138Z,101481.13
2022-08-26T10:09:14.079Z,101489.13
2022-08-26T10:11:56.057Z,101490.13
2022-08-26T10:14:48.158Z,101488.59
2022-08-26T10:17:34.211Z,101488.16
2022-08-26T10:20:25.741Z,101491.25
2022-08-26T10:23:14.890Z,101486.75
2022-08-26T10:25:59.945Z,101497.69
2022-08-26T10:29:01.451Z,101502.50
2022-08-26T10:31:40.490Z,101496.41
2022-08-26T10:34:12.524Z,101490.38
2022-08-26T10:37:14.271Z,101500.13
2022-08-26T10:40:07.596Z,101501.75
2022-08-26T10:42:41.933Z,101498.00
2022-08-26T10:45:15.330Z,101500.25
2022-08-26T10:48:05.438Z,101493.94
2022-08-26T10:50:41.616Z,101503.06
2022-08-26T10:53:24.946Z,101502.13
2022-08-26T10:56:22.559Z,101495.78
2022-08-26T10:58:53.573Z,101506.13
2022-08-26T11:01:43.780Z,101498.78
2022-08-26T11:04:27.488Z,101494.72
2022-08-26T11:07:46.211Z,101500.56
2022-08-26T11:10:19.092Z,101507.00
2022-08-26T11:12:54.829Z,101498.50
2022-08-26T11:15:24.504Z,101496.44
2022-08-26T11:17:52.070Z,101500.97
2022-08-26T11:20:44.173Z,101502.59
2022-08-26T11:23:19.826Z,101498.81
2022-08-26T11:25:55.887Z,101502.78
2022-08-26T11:28:53.418Z,101496.44
2022-08-26T11:31:26.774Z,101500.25
2022-08-26T11:34:01.976Z,101498.81
2022-08-26T11:36:47.323Z,101495.84
2022-08-26T11:39:47.855Z,101498.19
2022-08-26T11:42:35.782Z,101500.56
2022-08-26T11:45:24.337Z,101502.25
2022-08-26T11:47:51.996Z,101504.72
2022-08-26T11:50:26.077Z,101500.63
2022-08-26T11:53:07.583Z,101500.34
2022-08-26T11:55:43.390Z,101509.91
2022-08-26T11:58:12.967Z,101508.78
2022-08-26T12:00:45.685Z,101511.16
2022-08-26T12:03:21.496Z,101505.13
2022-08-26T12:05:54.193Z,101502.00
2022-08-26T12:08:31.271Z,101509.00
2022-08-26T12:11:28.063Z,101501.38
2022-08-26T12:14:15.999Z,101502.34
2022-08-26T12:16:43.485Z,101496.09
2022-08-26T12:19:33.803Z,101496.63
2022-08-26T12:22:17.219Z,101498.13
2022-08-26T12:24:52.395Z,101498.03
2022-08-26T12:27:29.331Z,101496.44
2022-08-26T12:30:20.008Z,101497.59
2022-08-26T12:32:58.721Z,101492.22
2022-08-26T12:35:28.847Z,101507.38
2022-08-26T12:37:57.750Z,101501.91
2022-08-26T12:40:30.956Z,101510.84
2022-08-26T12:43:02.368Z,101513.53
2022-08-26T12:45:43.054Z,101513.84
2022-08-26T12:48:24.485Z,101518.56
2022-08-26T12:50:52.876Z,101524.50
2022-08-26T12:53:30.963Z,101514.81
2022-08-26T12:56:18.255Z,101512.47
2022-08-26T12:59:25.077Z,101523.19
2022-08-26T13:01:54.792Z,101518.81
2022-08-26T13:04:43.514Z,101515.25
2022-08-26T13:07:22.507Z,101516.88
2022-08-26T13:09:58.335Z,101517.81
2022-08-26T13:12:37.500Z,101517.09
2022-08-26T13:15:06.911Z,101522.13
2022-08-26T13:17:35.910Z,101520.31
2022-08-26T13:20:04.655Z,101516.88
2022-08-26T13:22:32.188Z,101513.56
2022-08-26T13:24:59.852Z,101516.34
2022-08-26T13:27:27.674Z,101521.63
2022-08-26T13:29:57.675Z,101512.59
2022-08-26T13:32:27.632Z,101505.94
2022-08-26T13:34:57.438Z,101511.06
2022-08-26T13:37:34.699Z,101513.75
2022-08-26T13:40:07.025Z,101513.88
2022-08-26T13:42:34.497Z,101507.22
2022-08-26T13:45:03.261Z,101504.84
2022-08-26T13:47:30.721Z,101497.19
2022-08-26T13:49:58.232Z,101507.50
2022-08-26T13:52:30.478Z,101503.75
2022-08-26T13:55:00.748Z,101498.03
2022-08-26T13:57:30.224Z,101501.34
2022-08-26T13:59:59.704Z,101506.28
2022-08-26T14:02:28.313Z,101508.53
2022-08-26T14:04:56.033Z,101503.69
2022-08-26T14:07:24.438Z,101504.50
2022-08-26T14:09:51.930Z,101499.28
2022-08-26T14:12:19.514Z,101498.56
2022-08-26T14:14:46.815Z,101504.75
2022-08-26T14:17:21.383Z,101497.50
2022-08-26T14:19:50.447Z,101491.09
2022-08-26T14:22:21.926Z,101491.41
2022-08-26T14:24:50.488Z,101491.41
2022-08-26T14:27:17.673Z,101482.41
2022-08-26T14:29:44.851Z,101491.00
2022-08-26T14:32:28.995Z,101471.84
2022-08-26T14:34:56.290Z,101469.53
2022-08-26T14:37:24.055Z,101467.19
2022-08-26T14:39:51.538Z,101453.06
2022-08-26T14:42:31.454Z,101455.59
2022-08-26T14:45:02.806Z,101451.91
2022-08-26T14:47:29.999Z,101451.81
2022-08-26T14:49:57.082Z,101458.94
2022-08-26T14:52:25.503Z,101459.91
2022-08-26T14:54:55.421Z,101463.81
2022-08-26T14:57:22.737Z,101461.44
2022-08-26T14:59:50.552Z,101455.19
2022-08-26T15:02:33.047Z,101463.03
2022-08-26T15:05:02.663Z,101463.25
2022-08-26T15:07:30.423Z,101465.69
2022-08-26T15:09:58.585Z,101463.66
2022-08-26T15:12:26.068Z,101459.47
2022-08-26T15:14:53.992Z,101467.81
2022-08-26T15:17:22.118Z,101464.56
2022-08-26T15:19:49.380Z,101466.72
2022-08-26T15:22:17.630Z,101471.47
2022-08-26T15:24:44.744Z,101465.69
2022-08-26T15:27:14.188Z,101471.31
2022-08-26T15:29:41.579Z,101469.25
2022-08-26T15:32:08.800Z,101477.41
2022-08-26T15:34:35.987Z,101481.41
2022-08-26T15:37:03.766Z,101488.28
2022-08-26T15:39:31.098Z,101479.78
2022-08-26T15:41:59.750Z,101482.59
2022-08-26T15:44:28.238Z,101475.63
2022-08-26T15:46:58.592Z,101482.81
2022-08-26T15:49:27.540Z,101477.78
2022-08-26T15:51:55.023Z,101482.31
2022-08-26T15:54:24.565Z,101472.41
2022-08-26T15:56:55.316Z,101469.59
2022-08-26T15:59:22.816Z,101471.84
2022-08-26T16:01:51.839Z,101466.25
2022-08-26T16:04:19.315Z,101467.94
2022-08-26T16:06:50.349Z,101465.38
2022-08-26T16:09:20.499Z,101457.44
2022-08-26T16:11:47.631Z,101450.44
2022-08-26T16:14:15.190Z,101453.38
2022-08-26T16:16:42.654Z,101454.78
2022-08-26T16:19:11.622Z,101459.84
2022-08-26T16:21:40.798Z,101459.03
2022-08-26T16:24:09.096Z,101463.25
2022-08-26T16:26:39.666Z,101460.47
2022-08-26T16:29:12.274Z,101455.75
2022-08-26T16:31:40.151Z,101459.06
2022-08-26T16:34:09.175Z,101464.75
2022-08-26T16:36:38.610Z,101462.19
2022-08-26T16:39:08.136Z,101460.97
2022-08-26T16:41:36.154Z,101472.28
2022-08-26T16:44:05.241Z,101468.09
2022-08-26T16:46:33.695Z,101469.03
2022-08-26T16:49:04.804Z,101473.97
2022-08-26T16:51:32.715Z,101468.25
2022-08-26T16:54:08.716Z,101459.84
2022-08-26T16:56:37.809Z,101459.63
2022-08-26T16:59:11.696Z,101459.94
2022-08-26T17:01:38.913Z,101453.78
2022-08-26T17:04:07.322Z,101455.47
2022-08-26T17:06:34.439Z,101463.09
2022-08-26T17:09:02.596Z,101462.53
2022-08-26T17:11:30.322Z,101464.91
2022-08-26T17:13:57.460Z,101467.41
2022-08-26T17:16:27.038Z,101473.31
2022-08-26T17:18:59.094Z,101476.53
2022-08-26T17:21:28.313Z,101474.94
2022-08-26T17:23:56.367Z,101486.69
2022-08-26T17:26:23.615Z,101481.34
2022-08-26T17:28:51.214Z,101473.84
2022-08-26T17:31:19.345Z,101485.25
2022-08-26T17:33:53.228Z,101481.09
2022-08-26T17:36:27.514Z,101486.25
2022-08-26T17:38:58.396Z,101485.16
2022-08-26T17:41:27.076Z,101493.53
2022-08-26T17:43:54.522Z,101509.53
2022-08-26T17:46:22.624Z,101501.25
2022-08-26T17:48:49.900Z,101498.13
2022-08-26T17:51:19.497Z,101492.53
2022-08-26T17:53:47.905Z,101502.06
2022-08-26T17:56:19.430Z,101493.66
2022-08-26T17:58:51.079Z,101493.63
2022-08-26T18:01:26.109Z,101498.91
2022-08-26T18:03:59.697Z,101499.28
2022-08-26T18:06:30.487Z,101502.06
2022-08-26T18:08:58.627Z,101505.72
2022-08-26T18:11:26.983Z,101501.09
2022-08-26T18:13:54.195Z,101507.63
2022-08-26T18:16:22.354Z,101510.50
2022-08-26T18:18:53.363Z,101511.69
2022-08-26T18:21:24.727Z,101513.59
2022-08-26T18:23:53.883Z,101514.00
2022-08-26T18:26:32.794Z,101518.50
2022-08-26T18:29:00.659Z,101516.41
2022-08-26T18:31:29.083Z,101517.78
2022-08-26T18:34:00.138Z,101526.31
2022-08-26T18:36:36.828Z,101528.34
2022-08-26T18:39:05.834Z,101525.84
2022-08-26T18:41:39.902Z,101527.84
2022-08-26T18:44:13.300Z,101529.03
2022-08-26T18:46:42.022Z,101534.47
2022-08-26T18:49:13.758Z,101534.56
2022-08-26T18:51:43.282Z,101537.53
2022-08-26T18:54:12.331Z,101533.31
2022-08-26T18:56:42.262Z,101541.59
2022-08-26T18:59:12.711Z,101547.31
2022-08-26T19:01:42.224Z,101548.44
2022-08-26T19:04:14.704Z,101555.78
2022-08-26T19:06:46.714Z,101553.19
2022-08-26T19:09:17.850Z,101552.34
2022-08-26T19:11:49.776Z,101561.25
2022-08-26T19:14:19.178Z,101552.63
2022-08-26T19:16:49.587Z,101549.25
2022-08-26T19:19:17.247Z,101555.78
2022-08-26T19:21:45.606Z,101553.28
2022-08-26T19:24:17.561Z,101552.50
2022-08-26T19:26:57.510Z,101546.66
2022-08-26T19:29:30.349Z,101561.97
2022-08-26T19:31:57.718Z,101552.50
2022-08-26T19:34:25.152Z,101567.91
2022-08-26T19:36:54.281Z,101567.19
2022-08-26T19:39:21.747Z,101572.75
2022-08-26T19:41:49.929Z,101568.34
2022-08-26T19:44:41.448Z,101568.41
2022-08-26T19:47:11.647Z,101556.19
2022-08-26T19:49:39.065Z,101552.84
2022-08-26T19:52:08.015Z,101557.41
2022-08-26T19:54:36.101Z,101560.19
2022-08-26T19:57:04.231Z,101559.47
2022-08-26T19:59:33.065Z,101564.00
2022-08-26T20:02:00.819Z,101573.91
2022-08-26T20:04:31.362Z,101567.78
2022-08-26T20:07:00.971Z,101575.81
2022-08-26T20:09:30.735Z,101571.50
2022-08-26T20:11:58.420Z,101565.47
2022-08-26T20:14:27.828Z,101566.31
2022-08-26T20:16:56.550Z,101570.06
2022-08-26T20:19:42.489Z,101560.50
2022-08-26T20:22:11.582Z,101569.47
2022-08-26T20:24:38.702Z,101575.06
2022-08-26T20:27:07.909Z,101567.31
2022-08-26T20:29:36.870Z,101574.44
2022-08-26T20:32:07.088Z,101568.50
2022-08-26T20:34:35.801Z,101563.22
2022-08-26T20:37:04.720Z,101575.91
2022-08-26T20:39:31.966Z,101572.41
2022-08-26T20:41:59.524Z,101579.38
2022-08-26T20:44:26.700Z,101576.81
2022-08-26T20:46:53.799Z,101578.69
2022-08-26T20:49:21.186Z,101581.47
2022-08-26T20:51:52.464Z,101579.81
2022-08-26T20:54:27.537Z,101570.06
2022-08-26T20:56:58.162Z,101577.41
2022-08-26T20:59:26.894Z,101581.00
2022-08-26T21:01:54.684Z,101585.34
2022-08-26T21:04:26.740Z,101584.84
2022-08-26T21:06:55.067Z,101593.69
2022-08-26T21:09:25.616Z,101591.13
2022-08-26T21:11:54.832Z,101593.13
2022-08-26T21:14:25.730Z,101584.72
2022-08-26T21:16:53.528Z,101570.94
2022-08-26T21:19:21.171Z,101582.75
2022-08-26T21:21:49.619Z,101583.88
2022-08-26T21:24:17.412Z,101587.56
2022-08-26T21:26:45.387Z,101593.00
2022-08-26T21:29:13.705Z,101587.41
2022-08-26T21:31:45.681Z,101594.72
2022-08-26T21:34:18.965Z,101586.13
2022-08-26T21:36:47.895Z,101579.03
2022-08-26T21:39:21.231Z,101585.25
2022-08-26T21:41:48.387Z,101582.66
2022-08-26T21:44:17.930Z,101579.22
2022-08-26T21:46:46.840Z,101574.13
2022-08-26T21:49:16.091Z,101587.56
2022-08-26T21:51:48.227Z,101584.81
2022-08-26T21:54:15.901Z,101587.56
2022-08-26T21:56:47.050Z,101579.31
2022-08-26T21:59:18.080Z,101591.19
2022-08-26T22:01:46.008Z,101589.53
2022-08-26T22:04:13.724Z,101595.91
2022-08-26T22:06:46.384Z,101594.38
2022-08-26T22:09:16.692Z,101594.53
2022-08-26T22:11:44.596Z,101602.38
2022-08-26T22:14:12.028Z,101594.53
2022-08-26T22:16:39.718Z,101594.63
2022-08-26T22:19:17.035Z,101601.75
2022-08-26T22:21:45.240Z,101601.75
2022-08-26T22:24:12.538Z,101607.88
2022-08-26T22:26:39.888Z,101612.44
2022-08-26T22:29:08.108Z,101603.63
2022-08-26T22:31:38.048Z,101610.72
2022-08-26T22:34:09.852Z,101602.69
2022-08-26T22:36:46.996Z,101607.25
2022-08-26T22:39:19.131Z,101603.81
2022-08-26T22:41:48.458Z,101609.16
2022-08-26T22:44:19.209Z,101606.66
2022-08-26T22:46:48.461Z,101598.53
2022-08-26T22:49:16.513Z,101601.31
2022-08-26T22:51:45.462Z,101605.03
2022-08-26T22:54:14.573Z,101605.47
2022-08-26T22:56:42.843Z,101600.38
2022-08-26T22:59:12.613Z,101607.38
2022-08-26T23:01:43.507Z,101609.25
2022-08-26T23:04:11.116Z,101602.09
2022-08-26T23:06:43.015Z,101602.09
2022-08-26T23:09:11.202Z,101606.66
2022-08-26T23:11:42.819Z,101602.25
2022-08-26T23:14:11.201Z,101610.28
2022-08-26T23:16:43.597Z,101600.78
2022-08-26T23:19:14.418Z,101602.66
2022-08-26T23:21:41.766Z,101600.94
2022-08-26T23:24:10.587Z,101605.31
2022-08-26T23:26:40.058Z,101602.66
2022-08-26T23:29:10.018Z,101593.81
2022-08-26T23:31:40.156Z,101593.81
2022-08-26T23:34:26.361Z,101591.97
2022-08-26T23:36:56.959Z,101592.91
2022-08-26T23:39:25.576Z,101592.13
2022-08-26T23:41:52.828Z,101593.00
2022-08-26T23:44:25.502Z,101591.88
2022-08-26T23:46:52.775Z,101593.06
2022-08-26T23:49:19.822Z,101594.00
2022-08-26T23:52:05.394Z,101598.59
2022-08-26T23:54:33.114Z,101592.72
2022-08-26T23:57:00.357Z,101594.50
2022-08-26T23:59:27.375Z,101584.84
